Time;durP1;ratioP1;P1;durP2;ratioP2;P2;SDS_P1;SDS_P2;PMS_P1;PMS_P2;Temp;Humidity;BMP_temperature;BMP_pressure;BME280_temperature;BME280_humidity;BME280_pressure;Samples;Min_cycle;Max_cycle;Signal;HPM_P1;HPM_P2
2023/06/16 00:00:46;;;;;;;14.27;9.40;;;18.90;99.90;;;;;;5006039;28;20050;-54
2023/06/16 00:03:15;;;;;;;15.07;8.30;;;18.90;99.90;;;;;;5007896;28;20042;-51
2023/06/16 00:05:46;;;;;;;13.15;7.80;;;18.90;99.90;;;;;;5011374;28;20112;-54
2023/06/16 00:08:14;;;;;;;13.57;8.23;;;18.90;99.90;;;;;;5011567;28;20037;-56
2023/06/16 00:10:42;;;;;;;16.27;8.32;;;18.80;99.90;;;;;;5010735;28;20088;-50
2023/06/16 00:13:09;;;;;;;15.93;8.55;;;18.80;99.90;;;;;;5007847;28;20042;-53
2023/06/16 00:15:36;;;;;;;10.80;7.60;;;18.70;99.90;;;;;;5011113;28;20049;-55
2023/06/16 00:18:03;;;;;;;12.35;8.25;;;18.60;99.90;;;;;;5011042;28;20088;-53
2023/06/16 00:20:32;;;;;;;12.25;8.60;;;18.60;99.90;;;;;;5010781;28;20081;-53
2023/06/16 00:22:59;;;;;;;18.10;7.80;;;18.50;99.90;;;;;;5011062;28;20052;-54
2023/06/16 00:25:26;;;;;;;10.73;7.70;;;18.50;99.90;;;;;;5011173;28;20050;-54
2023/06/16 00:27:53;;;;;;;10.15;7.40;;;18.50;99.90;;;;;;5010384;28;20503;-55
2023/06/16 00:30:20;;;;;;;11.68;7.68;;;18.50;99.90;;;;;;5010791;28;20092;-53
2023/06/16 00:32:47;;;;;;;11.13;8.00;;;18.50;99.90;;;;;;5010816;28;20124;-53
2023/06/16 00:35:14;;;;;;;17.73;8.95;;;18.40;99.90;;;;;;5007236;28;20049;-56
2023/06/16 00:37:41;;;;;;;12.77;7.57;;;18.40;99.90;;;;;;5010630;28;20042;-57
2023/06/16 00:40:09;;;;;;;16.95;7.55;;;18.30;99.90;;;;;;5010593;28;20053;-51
2023/06/16 00:42:36;;;;;;;17.50;8.00;;;18.30;99.90;;;;;;5010040;28;20042;-54
2023/06/16 00:45:03;;;;;;;16.77;8.98;;;18.30;99.90;;;;;;5010168;28;20100;-55
2023/06/16 00:47:30;;;;;;;16.05;8.35;;;18.20;99.90;;;;;;5010861;28;20433;-53
2023/06/16 00:49:56;;;;;;;11.73;7.78;;;18.10;99.90;;;;;;4634084;28;10000359;-53
2023/06/16 00:52:25;;;;;;;11.90;6.93;;;18.10;99.90;;;;;;5009218;28;20493;-53
2023/06/16 00:54:54;;;;;;;11.75;7.22;;;18.00;99.90;;;;;;4997260;28;20050;-55
2023/06/16 00:57:21;;;;;;;12.77;6.70;;;17.90;99.90;;;;;;5010333;28;20138;-54
2023/06/16 00:59:48;;;;;;;15.43;7.45;;;17.80;99.90;;;;;;4999486;28;20046;-56
2023/06/16 01:02:15;;;;;;;10.38;7.55;;;17.80;99.90;;;;;;5010074;28;20050;-56
2023/06/16 01:04:42;;;;;;;11.68;6.95;;;17.70;99.90;;;;;;4991211;28;20146;-53
2023/06/16 01:07:28;;;;;;;12.23;7.57;;;17.70;99.90;;;;;;5001719;28;20058;-54
2023/06/16 01:10:00;;;;;;;12.82;7.43;;;17.70;99.90;;;;;;5004268;28;20112;-53
2023/06/16 01:12:27;;;;;;;14.55;7.75;;;17.70;99.90;;;;;;5002251;28;20073;-55
2023/06/16 01:15:15;;;;;;;12.07;8.27;;;17.60;99.90;;;;;;5002954;28;20038;-53
2023/06/16 01:17:44;;;;;;;13.73;6.90;;;17.60;99.90;;;;;;4998776;28;20060;-54
2023/06/16 01:20:16;;;;;;;11.82;7.00;;;17.60;99.90;;;;;;4999124;28;20431;-55
2023/06/16 01:22:56;;;;;;;8.95;7.10;;;17.50;99.90;;;;;;5001726;28;20053;-54
2023/06/16 01:25:24;;;;;;;10.20;7.10;;;17.50;99.90;;;;;;5000945;28;20046;-54
2023/06/16 01:27:52;;;;;;;18.23;8.30;;;17.40;99.90;;;;;;5001221;28;20046;-53
2023/06/16 01:30:21;;;;;;;12.45;7.50;;;17.30;99.90;;;;;;4998963;28;20049;-54
2023/06/16 01:32:57;;;;;;;10.93;7.57;;;17.20;99.90;;;;;;5009701;28;20050;-51
2023/06/16 01:35:24;;;;;;;12.50;6.97;;;17.10;99.90;;;;;;5008827;28;20088;-55
2023/06/16 01:37:51;;;;;;;12.45;7.57;;;17.00;99.90;;;;;;5002636;28;20050;-56
2023/06/16 01:40:18;;;;;;;15.05;7.03;;;17.10;99.90;;;;;;4999388;28;20042;-54
2023/06/16 01:42:49;;;;;;;11.43;6.78;;;17.00;99.90;;;;;;5009446;28;20060;-52
2023/06/16 01:45:16;;;;;;;13.10;7.28;;;17.00;99.90;;;;;;4997382;28;20054;-55
2023/06/16 01:47:43;;;;;;;12.07;7.03;;;17.00;99.90;;;;;;4997569;28;20046;-55
2023/06/16 01:50:11;;;;;;;11.80;8.05;;;17.00;99.90;;;;;;5004095;28;20057;-56
2023/06/16 01:52:38;;;;;;;10.45;6.82;;;17.10;99.90;;;;;;5009106;28;20052;-53
2023/06/16 01:55:06;;;;;;;13.27;6.60;;;17.10;99.90;;;;;;5008968;28;20053;-55
2023/06/16 01:57:34;;;;;;;11.00;7.05;;;16.90;99.90;;;;;;5008695;28;20057;-51
2023/06/16 02:00:08;;;;;;;11.68;6.72;;;16.90;99.90;;;;;;5006830;28;20433;-56
2023/06/16 02:02:35;;;;;;;17.77;9.23;;;16.80;99.90;;;;;;4995860;28;20049;-55
2023/06/16 02:05:03;;;;;;;10.23;7.03;;;16.80;99.90;;;;;;5006419;28;20060;-55
2023/06/16 02:07:33;;;;;;;13.73;7.75;;;16.80;99.90;;;;;;4995990;28;20516;-55
2023/06/16 02:10:01;;;;;;;12.27;6.63;;;16.80;99.90;;;;;;4989946;28;20046;-55
2023/06/16 02:12:28;;;;;;;12.32;7.78;;;16.70;99.90;;;;;;4995600;28;20049;-55
2023/06/16 02:14:55;;;;;;;10.05;6.55;;;16.70;99.90;;;;;;5007184;28;20053;-54
2023/06/16 02:17:26;;;;;;;8.43;6.82;;;16.70;99.90;;;;;;4998212;28;20046;-55
2023/06/16 02:19:54;;;;;;;9.88;7.20;;;16.60;99.90;;;;;;5002890;28;20057;-51
2023/06/16 02:22:21;;;;;;;12.10;7.50;;;16.50;99.90;;;;;;5008279;28;20111;-53
2023/06/16 02:24:48;;;;;;;8.95;6.40;;;16.60;99.90;;;;;;5008621;28;20512;-54
2023/06/16 02:27:15;;;;;;;12.13;7.07;;;16.60;99.90;;;;;;5007296;28;20567;-56
2023/06/16 02:29:42;;;;;;;10.02;7.05;;;16.70;99.90;;;;;;5000774;28;20414;-55
2023/06/16 02:32:09;;;;;;;8.85;7.20;;;16.80;99.90;;;;;;5008261;28;20046;-55
2023/06/16 02:34:36;;;;;;;8.43;5.97;;;16.80;99.90;;;;;;5008365;28;20095;-53
2023/06/16 02:37:03;;;;;;;8.50;6.45;;;16.70;99.90;;;;;;5008298;28;20061;-52
2023/06/16 02:39:30;;;;;;;15.63;8.85;;;16.70;99.90;;;;;;5008639;28;20093;-52
2023/06/16 02:41:56;;;;;;;11.25;6.68;;;16.70;99.90;;;;;;5007701;28;20049;-54
2023/06/16 02:44:23;;;;;;;9.60;6.57;;;16.80;99.90;;;;;;5006973;28;20057;-50
2023/06/16 02:46:50;;;;;;;10.68;6.80;;;16.70;99.90;;;;;;5007987;28;20050;-54
2023/06/16 02:49:19;;;;;;;7.93;5.72;;;16.70;99.90;;;;;;5008595;28;20077;-56
2023/06/16 02:51:45;;;;;;;10.93;6.32;;;16.70;99.90;;;;;;5007894;28;20050;-54
2023/06/16 02:54:12;;;;;;;9.18;6.20;;;16.70;99.90;;;;;;5008313;28;20472;-54
2023/06/16 02:56:39;;;;;;;15.10;6.63;;;16.50;99.90;;;;;;5008038;28;20143;-55
2023/06/16 02:59:06;;;;;;;10.55;6.57;;;16.40;99.90;;;;;;5002488;28;20037;-55
2023/06/16 03:01:33;;;;;;;12.55;6.22;;;16.30;99.90;;;;;;4992953;28;20743;-54
2023/06/16 03:04:00;;;;;;;10.40;6.53;;;16.20;99.90;;;;;;5007845;28;20049;-54
2023/06/16 03:06:29;;;;;;;10.68;7.43;;;16.10;99.90;;;;;;5008039;28;20060;-56
2023/06/16 03:08:56;;;;;;;9.65;6.78;;;16.00;99.90;;;;;;5007733;28;20084;-54
2023/06/16 03:11:23;;;;;;;13.32;6.50;;;16.00;99.90;;;;;;5007900;28;20052;-54
2023/06/16 03:13:50;;;;;;;8.38;6.03;;;15.90;99.90;;;;;;5007418;28;20516;-53
2023/06/16 03:16:20;;;;;;;9.85;6.50;;;15.80;99.90;;;;;;5008157;28;20054;-55
2023/06/16 03:18:48;;;;;;;9.88;5.53;;;15.80;99.90;;;;;;5007492;28;20405;-56
2023/06/16 03:21:16;;;;;;;7.22;5.97;;;15.70;99.90;;;;;;5007822;28;20120;-55
2023/06/16 03:23:43;;;;;;;7.53;5.47;;;15.60;99.90;;;;;;5007757;28;20555;-55
2023/06/16 03:26:10;;;;;;;7.15;5.53;;;15.70;99.90;;;;;;5007827;28;20046;-55
2023/06/16 03:28:38;;;;;;;15.75;6.28;;;15.70;99.90;;;;;;4995562;28;20049;-54
2023/06/16 03:31:04;;;;;;;8.70;6.05;;;15.60;99.90;;;;;;5007720;28;20183;-55
2023/06/16 03:33:31;;;;;;;10.00;5.97;;;15.50;99.90;;;;;;5007975;28;20054;-55
2023/06/16 03:35:58;;;;;;;14.38;6.65;;;15.40;99.90;;;;;;5007747;28;20076;-55
2023/06/16 03:38:25;;;;;;;15.45;6.45;;;15.40;99.90;;;;;;5008483;28;20042;-56
2023/06/16 03:40:52;;;;;;;11.32;6.90;;;15.40;99.90;;;;;;5011499;28;20052;-55
2023/06/16 03:43:18;;;;;;;10.15;6.22;;;15.40;99.90;;;;;;5011967;28;20058;-53
2023/06/16 03:45:45;;;;;;;12.32;6.15;;;15.40;99.90;;;;;;5011394;28;20058;-53
2023/06/16 03:48:12;;;;;;;10.15;6.35;;;15.40;99.90;;;;;;5011627;28;20049;-55
2023/06/16 03:50:39;;;;;;;7.93;5.55;;;15.50;99.90;;;;;;5010984;28;20057;-52
2023/06/16 03:53:06;;;;;;;11.65;6.55;;;15.50;99.90;;;;;;5011810;28;20053;-57
2023/06/16 03:55:42;;;;;;;12.90;5.80;;;15.50;99.90;;;;;;5008851;28;20386;-56
2023/06/16 03:58:10;;;;;;;9.30;6.70;;;15.50;99.90;;;;;;5011462;28;20046;-54
2023/06/16 04:00:37;;;;;;;13.98;6.55;;;15.50;99.90;;;;;;5010836;28;20556;-51
2023/06/16 04:03:04;;;;;;;11.02;5.97;;;15.60;99.90;;;;;;5012107;28;20654;-55
2023/06/16 04:05:32;;;;;;;11.52;6.60;;;15.60;99.90;;;;;;5008720;28;20789;-54
2023/06/16 04:07:59;;;;;;;14.77;7.50;;;15.70;99.90;;;;;;5011758;28;20409;-55
2023/06/16 04:10:26;;;;;;;13.13;6.53;;;15.80;99.90;;;;;;5010984;28;20058;-53
2023/06/16 04:12:53;;;;;;;13.10;7.47;;;15.70;99.90;;;;;;5011139;28;20054;-54
2023/06/16 04:15:20;;;;;;;13.73;6.57;;;15.60;99.90;;;;;;5011273;28;20057;-55
2023/06/16 04:17:47;;;;;;;13.45;6.03;;;15.60;99.90;;;;;;5011344;28;20053;-56
2023/06/16 04:20:14;;;;;;;18.00;6.43;;;15.60;99.90;;;;;;5010908;28;20571;-56
2023/06/16 04:22:42;;;;;;;12.55;6.47;;;15.60;99.90;;;;;;5010209;28;20045;-55
2023/06/16 04:25:09;;;;;;;9.27;6.30;;;15.70;99.90;;;;;;5011205;28;20046;-55
2023/06/16 04:27:37;;;;;;;12.45;5.97;;;15.80;99.90;;;;;;5010529;28;20057;-53
2023/06/16 04:30:06;;;;;;;17.92;6.88;;;15.80;99.90;;;;;;5011408;28;20041;-56
2023/06/16 04:32:36;;;;;;;9.77;6.57;;;15.90;99.90;;;;;;5005764;28;20054;-56
2023/06/16 04:35:04;;;;;;;16.20;7.13;;;15.90;99.90;;;;;;5009518;28;20096;-54
2023/06/16 04:37:31;;;;;;;11.63;6.13;;;15.90;99.90;;;;;;5008429;28;20049;-55
2023/06/16 04:39:59;;;;;;;11.27;6.65;;;15.90;99.90;;;;;;5010901;28;20420;-55
2023/06/16 04:42:25;;;;;;;10.98;6.65;;;15.80;99.90;;;;;;5010104;28;20053;-57
2023/06/16 04:44:52;;;;;;;11.60;6.72;;;15.80;99.90;;;;;;5010831;28;20049;-55
2023/06/16 04:47:19;;;;;;;12.95;6.38;;;15.80;99.90;;;;;;5011014;28;20054;-53
2023/06/16 04:49:46;;;;;;;13.48;7.38;;;15.90;99.90;;;;;;5009524;28;20050;-55
2023/06/16 04:52:13;;;;;;;10.75;6.80;;;16.00;99.90;;;;;;5009275;28;20761;-55
2023/06/16 04:54:40;;;;;;;15.05;7.10;;;16.00;99.90;;;;;;5010134;28;20053;-56
2023/06/16 04:57:07;;;;;;;9.43;6.50;;;16.10;99.90;;;;;;5010154;28;20049;-57
2023/06/16 04:59:35;;;;;;;12.30;6.22;;;16.20;99.90;;;;;;5010809;28;20054;-53
2023/06/16 05:02:02;;;;;;;14.00;7.72;;;16.20;99.90;;;;;;5010231;28;20419;-55
2023/06/16 05:04:28;;;;;;;14.80;7.53;;;16.20;99.90;;;;;;5010818;28;20049;-55
2023/06/16 05:06:55;;;;;;;8.65;6.50;;;16.20;99.90;;;;;;5010240;28;20046;-56
2023/06/16 05:09:22;;;;;;;12.45;7.40;;;16.20;99.90;;;;;;5010425;28;20519;-52
2023/06/16 05:11:49;;;;;;;12.10;6.88;;;16.30;99.90;;;;;;5009880;28;20053;-56
2023/06/16 05:14:16;;;;;;;13.07;6.43;;;16.40;99.90;;;;;;5010476;28;20042;-55
2023/06/16 05:16:43;;;;;;;10.52;6.55;;;16.40;99.90;;;;;;5008779;28;20042;-53
2023/06/16 05:19:10;;;;;;;8.35;6.13;;;16.50;99.90;;;;;;5007801;28;20818;-56
2023/06/16 05:21:37;;;;;;;10.23;6.88;;;16.60;99.90;;;;;;5009793;28;20441;-54
2023/06/16 05:24:04;;;;;;;13.25;6.70;;;16.60;99.90;;;;;;5010040;28;20406;-55
2023/06/16 05:26:31;;;;;;;12.68;6.85;;;16.70;99.90;;;;;;5009775;28;20048;-56
2023/06/16 05:28:58;;;;;;;18.33;8.00;;;16.70;99.90;;;;;;5009872;28;20058;-53
2023/06/16 05:31:24;;;;;;;16.20;7.43;;;16.80;99.90;;;;;;5009662;28;20089;-56
2023/06/16 05:33:51;;;;;;;9.25;6.50;;;16.90;99.90;;;;;;5009952;28;20098;-56
2023/06/16 05:36:18;;;;;;;12.65;6.32;;;16.90;99.90;;;;;;5010355;28;20053;-54
2023/06/16 05:38:45;;;;;;;11.02;7.60;;;17.00;99.90;;;;;;5006775;28;20401;-53
2023/06/16 05:41:12;;;;;;;14.60;6.83;;;17.00;99.90;;;;;;4660267;28;10000493;-56
2023/06/16 05:43:39;;;;;;;18.65;7.25;;;17.10;99.90;;;;;;5006375;28;20290;-55
2023/06/16 05:46:06;;;;;;;14.90;5.63;;;17.10;99.90;;;;;;5006876;28;20050;-55
2023/06/16 05:48:32;;;;;;;11.07;6.25;;;17.10;99.90;;;;;;5006137;28;20158;-54
2023/06/16 05:50:59;;;;;;;17.73;6.43;;;17.20;99.90;;;;;;5009749;28;20046;-56
2023/06/16 05:53:26;;;;;;;20.80;6.68;;;17.20;99.90;;;;;;5012535;28;20069;-56
2023/06/16 05:55:53;;;;;;;20.65;6.45;;;17.20;99.90;;;;;;5015173;28;20114;-56
2023/06/16 05:58:23;;;;;;;22.02;6.97;;;17.30;99.90;;;;;;5014804;28;20058;-55
2023/06/16 06:00:50;;;;;;;22.48;6.35;;;17.30;99.90;;;;;;5005457;28;20096;-56
2023/06/16 06:03:17;;;;;;;19.50;6.57;;;17.40;99.90;;;;;;5005625;28;20235;-54
2023/06/16 06:05:44;;;;;;;12.95;6.40;;;17.40;99.90;;;;;;5008252;28;20625;-55
2023/06/16 06:08:11;;;;;;;9.15;5.30;;;17.50;99.90;;;;;;5005522;28;20493;-56
2023/06/16 06:10:38;;;;;;;15.35;6.07;;;17.50;99.90;;;;;;5008288;28;20493;-56
2023/06/16 06:13:04;;;;;;;14.05;6.10;;;17.60;99.90;;;;;;5008900;28;20053;-56
2023/06/16 06:15:31;;;;;;;16.38;5.80;;;17.60;99.90;;;;;;5009323;28;20046;-55
2023/06/16 06:17:58;;;;;;;10.95;5.30;;;17.60;99.90;;;;;;5008673;28;20054;-55
2023/06/16 06:20:25;;;;;;;21.30;6.97;;;17.70;99.90;;;;;;5008826;28;20064;-54
2023/06/16 06:22:52;;;;;;;18.58;6.53;;;17.80;99.90;;;;;;5008851;28;20489;-53
2023/06/16 06:25:19;;;;;;;14.43;6.05;;;17.90;99.90;;;;;;5008803;28;20049;-55
2023/06/16 06:27:45;;;;;;;22.35;6.47;;;17.90;99.90;;;;;;5008987;28;20061;-55
2023/06/16 06:30:12;;;;;;;16.52;6.10;;;17.90;99.90;;;;;;4999353;28;20046;-56
2023/06/16 06:32:39;;;;;;;19.27;7.95;;;18.00;99.90;;;;;;5018709;28;20053;-54
2023/06/16 06:35:06;;;;;;;20.77;6.57;;;18.00;99.90;;;;;;5013115;28;20109;-56
2023/06/16 06:37:33;;;;;;;13.13;5.95;;;18.10;99.90;;;;;;5008890;28;20421;-56
2023/06/16 06:40:00;;;;;;;27.98;7.78;;;18.20;99.90;;;;;;5002344;28;20049;-56
2023/06/16 06:42:27;;;;;;;16.95;6.32;;;18.20;99.90;;;;;;5007892;28;20046;-57
2023/06/16 06:44:53;;;;;;;9.90;5.07;;;18.40;99.90;;;;;;5006734;28;20054;-54
2023/06/16 06:47:22;;;;;;;10.05;4.95;;;18.50;99.90;;;;;;5006951;28;20050;-55
2023/06/16 06:49:49;;;;;;;15.10;5.50;;;18.50;99.90;;;;;;5006535;28;20121;-54
2023/06/16 06:52:16;;;;;;;7.60;4.80;;;18.50;99.90;;;;;;5004167;28;20045;-56
2023/06/16 06:54:43;;;;;;;23.88;6.72;;;18.60;99.90;;;;;;4990521;28;20128;-54
2023/06/16 06:57:11;;;;;;;8.13;5.22;;;18.60;99.90;;;;;;5007093;28;20049;-55
2023/06/16 06:59:38;;;;;;;13.95;5.10;;;18.70;99.90;;;;;;5007148;28;20052;-58
2023/06/16 07:02:06;;;;;;;13.90;5.03;;;18.80;99.90;;;;;;5002160;28;20041;-56
2023/06/16 07:04:34;;;;;;;11.30;4.95;;;18.80;99.90;;;;;;5008119;28;20129;-53
2023/06/16 07:07:02;;;;;;;24.40;5.97;;;18.90;99.90;;;;;;5008435;28;20133;-56
2023/06/16 07:09:29;;;;;;;13.00;5.38;;;19.00;99.90;;;;;;5008465;28;20456;-59
2023/06/16 07:11:57;;;;;;;10.90;5.43;;;19.10;99.90;;;;;;5006132;28;20046;-57
2023/06/16 07:14:24;;;;;;;18.33;5.65;;;19.10;99.90;;;;;;5007488;28;20054;-53
2023/06/16 07:16:51;;;;;;;15.05;5.82;;;19.10;99.90;;;;;;5007372;28;20138;-55
2023/06/16 07:19:18;;;;;;;14.82;4.60;;;19.20;99.90;;;;;;5007746;28;20046;-54
2023/06/16 07:21:44;;;;;;;11.60;4.57;;;19.20;99.90;;;;;;5006362;28;20056;-54
2023/06/16 07:24:11;;;;;;;15.68;4.00;;;19.30;99.90;;;;;;5002223;28;20050;-55
2023/06/16 07:26:38;;;;;;;7.75;3.67;;;19.40;99.90;;;;;;5007909;28;20072;-57
2023/06/16 07:29:05;;;;;;;10.93;4.20;;;19.40;99.90;;;;;;5005428;28;20489;-54
2023/06/16 07:31:33;;;;;;;9.23;3.55;;;19.50;99.90;;;;;;5010941;28;20053;-55
2023/06/16 07:34:00;;;;;;;5.88;3.72;;;19.50;99.90;;;;;;5013220;28;20448;-54
2023/06/16 07:36:27;;;;;;;13.70;3.95;;;19.60;99.90;;;;;;5005484;28;20064;-62
2023/06/16 07:38:54;;;;;;;8.10;3.70;;;19.60;99.90;;;;;;4992675;28;20050;-57
2023/06/16 07:41:21;;;;;;;6.03;3.70;;;19.70;99.90;;;;;;5007000;28;20050;-59
2023/06/16 07:43:48;;;;;;;15.60;3.50;;;19.70;99.90;;;;;;5007682;28;20046;-57
2023/06/16 07:46:17;;;;;;;9.68;3.40;;;19.80;99.90;;;;;;5006871;28;20054;-56
2023/06/16 07:48:44;;;;;;;10.10;4.18;;;19.80;99.90;;;;;;5007796;28;20046;-57
2023/06/16 07:51:11;;;;;;;7.22;3.60;;;19.90;99.90;;;;;;5007606;28;20064;-58
2023/06/16 07:53:40;;;;;;;15.52;5.63;;;20.00;99.70;;;;;;5007157;28;20137;-56
2023/06/16 07:56:06;;;;;;;10.00;5.30;;;20.00;99.40;;;;;;5007196;28;20054;-55
2023/06/16 07:58:35;;;;;;;15.73;4.97;;;20.10;99.00;;;;;;5007073;28;20046;-53
2023/06/16 08:01:02;;;;;;;8.80;3.80;;;20.20;98.80;;;;;;5007059;28;20708;-53
2023/06/16 08:03:30;;;;;;;13.05;4.00;;;20.30;98.50;;;;;;4660241;28;10001175;-54
2023/06/16 08:05:57;;;;;;;12.13;4.45;;;20.30;98.20;;;;;;5005132;28;20132;-54
2023/06/16 08:08:27;;;;;;;8.90;3.63;;;20.40;98.00;;;;;;5006948;28;20049;-53
2023/06/16 08:10:56;;;;;;;17.20;4.38;;;20.50;97.60;;;;;;5007729;28;20116;-52
2023/06/16 08:13:23;;;;;;;9.82;3.42;;;20.60;97.30;;;;;;5007527;28;20136;-54
2023/06/16 08:15:50;;;;;;;12.38;3.38;;;20.60;96.50;;;;;;5008346;28;20038;-53
2023/06/16 08:18:17;;;;;;;7.32;3.38;;;20.60;96.20;;;;;;5007408;28;20101;-55
2023/06/16 08:20:45;;;;;;;10.73;3.30;;;20.60;94.80;;;;;;5006970;28;20042;-52
2023/06/16 08:23:12;;;;;;;7.80;3.78;;;20.70;96.10;;;;;;5006918;28;20053;-52
2023/06/16 08:25:39;;;;;;;15.82;5.40;;;20.80;95.60;;;;;;5009201;28;20044;-55
2023/06/16 08:28:07;;;;;;;11.25;3.38;;;20.90;95.20;;;;;;5010404;28;20080;-55
2023/06/16 08:30:35;;;;;;;10.57;3.30;;;21.00;94.90;;;;;;5010141;28;20049;-55
2023/06/16 08:33:01;;;;;;;5.40;2.65;;;21.00;94.60;;;;;;5010054;28;20092;-52
2023/06/16 08:35:29;;;;;;;5.03;2.33;;;21.10;93.90;;;;;;5010471;28;20078;-51
2023/06/16 08:37:56;;;;;;;5.35;3.53;;;21.20;93.00;;;;;;5010531;28;20065;-57
2023/06/16 08:40:22;;;;;;;12.18;3.08;;;21.20;93.10;;;;;;5010043;28;20049;-56
2023/06/16 08:42:49;;;;;;;12.38;3.47;;;21.30;92.50;;;;;;5010191;28;20049;-56
2023/06/16 08:45:17;;;;;;;4.78;3.00;;;21.30;92.20;;;;;;5001781;28;20057;-56
2023/06/16 08:47:45;;;;;;;13.05;3.60;;;21.30;92.40;;;;;;4998378;28;20054;-57
2023/06/16 08:50:14;;;;;;;8.98;2.92;;;21.40;92.50;;;;;;5010232;28;20088;-56
2023/06/16 08:52:41;;;;;;;14.77;2.90;;;21.50;91.90;;;;;;5010371;28;20598;-54
2023/06/16 08:55:13;;;;;;;10.13;3.00;;;21.60;91.60;;;;;;5001999;28;20154;-57
2023/06/16 08:57:48;;;;;;;10.55;2.75;;;21.60;91.50;;;;;;5010362;28;20084;-53
2023/06/16 09:00:15;;;;;;;10.82;3.58;;;21.70;91.20;;;;;;5001121;28;20050;-53
2023/06/16 09:02:48;;;;;;;6.07;3.28;;;21.70;91.70;;;;;;5009760;28;20501;-54
2023/06/16 09:05:17;;;;;;;6.95;2.75;;;21.80;91.50;;;;;;5001397;28;20062;-52
2023/06/16 09:07:45;;;;;;;16.15;2.85;;;21.90;91.60;;;;;;5010271;28;20061;-54
2023/06/16 09:10:12;;;;;;;11.82;3.47;;;22.00;91.50;;;;;;5010028;28;20042;-54
2023/06/16 09:12:39;;;;;;;11.63;3.38;;;22.00;91.40;;;;;;5009323;28;20058;-56
2023/06/16 09:15:10;;;;;;;11.95;3.72;;;22.10;91.50;;;;;;5009918;28;20038;-54
2023/06/16 09:17:37;;;;;;;7.80;2.92;;;22.20;90.50;;;;;;5006444;28;20048;-57
2023/06/16 09:20:07;;;;;;;7.43;2.88;;;22.30;91.30;;;;;;5009936;28;20045;-57
2023/06/16 09:22:36;;;;;;;8.07;2.70;;;22.40;90.80;;;;;;5009742;28;20564;-55
2023/06/16 09:25:07;;;;;;;13.88;3.38;;;22.50;90.70;;;;;;5007251;28;20049;-57
2023/06/16 09:27:47;;;;;;;14.23;3.72;;;22.50;90.50;;;;;;5009665;28;20046;-54
2023/06/16 09:30:20;;;;;;;6.88;3.00;;;22.50;88.60;;;;;;5009977;28;20664;-55
2023/06/16 09:32:53;;;;;;;15.63;3.10;;;22.60;87.70;;;;;;5009151;28;20107;-54
2023/06/16 09:35:22;;;;;;;4.45;2.80;;;22.60;89.40;;;;;;5009741;28;20081;-56
2023/06/16 09:37:50;;;;;;;12.98;2.78;;;22.70;88.60;;;;;;5009061;28;20046;-56
2023/06/16 09:40:19;;;;;;;13.32;4.15;;;22.80;88.10;;;;;;5009328;28;20081;-56
2023/06/16 09:42:47;;;;;;;15.77;3.03;;;22.90;87.60;;;;;;5009205;28;20050;-56
2023/06/16 09:45:15;;;;;;;9.13;3.55;;;23.00;87.50;;;;;;5009378;28;20517;-60
2023/06/16 09:47:45;;;;;;;14.00;3.17;;;23.10;86.50;;;;;;5009356;28;20060;-54
2023/06/16 09:50:17;;;;;;;10.43;2.75;;;23.20;85.60;;;;;;5009182;28;20112;-58
2023/06/16 09:52:46;;;;;;;10.60;2.90;;;23.30;85.20;;;;;;5008402;28;20411;-55
2023/06/16 09:55:13;;;;;;;8.80;2.30;;;23.30;84.90;;;;;;5009320;28;20053;-56
2023/06/16 09:57:42;;;;;;;12.88;3.10;;;23.40;85.20;;;;;;5008678;28;20046;-57
2023/06/16 10:00:15;;;;;;;8.00;3.35;;;23.50;82.30;;;;;;5009140;28;20382;-55
2023/06/16 10:02:44;;;;;;;18.15;3.15;;;23.60;82.40;;;;;;5008144;28;20145;-55
2023/06/16 10:05:14;;;;;;;9.27;2.70;;;23.70;83.50;;;;;;5009294;28;20493;-54
2023/06/16 10:07:42;;;;;;;9.52;2.40;;;23.80;82.50;;;;;;4998607;28;20136;-57
2023/06/16 10:10:10;;;;;;;6.85;2.30;;;23.90;81.90;;;;;;4999798;28;20137;-55
2023/06/16 10:12:41;;;;;;;3.92;2.33;;;24.00;79.60;;;;;;5008018;28;20073;-57
2023/06/16 10:15:08;;;;;;;6.57;2.60;;;24.20;80.00;;;;;;5008802;28;20053;-58
2023/06/16 10:17:35;;;;;;;10.68;2.92;;;24.40;82.10;;;;;;5008159;28;20041;-57
2023/06/16 10:20:05;;;;;;;10.02;3.70;;;24.80;80.30;;;;;;4999913;28;20050;-57
2023/06/16 10:22:32;;;;;;;14.68;4.22;;;25.30;79.70;;;;;;4981928;28;20049;-60
2023/06/16 10:25:00;;;;;;;9.75;2.45;;;25.60;78.10;;;;;;5008473;28;20674;-56
2023/06/16 10:27:27;;;;;;;3.40;2.38;;;25.90;77.90;;;;;;4995361;28;20057;-54
2023/06/16 10:29:54;;;;;;;3.60;2.35;;;26.20;75.50;;;;;;5000887;28;20046;-57
2023/06/16 10:32:21;;;;;;;6.43;2.70;;;26.30;75.40;;;;;;4998794;28;20085;-55
2023/06/16 10:34:51;;;;;;;6.30;2.95;;;26.50;75.20;;;;;;5012689;28;20125;-58
2023/06/16 10:37:21;;;;;;;9.98;3.50;;;26.70;74.60;;;;;;5015109;28;20115;-56
2023/06/16 10:39:48;;;;;;;7.32;2.88;;;26.90;71.70;;;;;;5014915;28;20066;-58
2023/06/16 10:42:15;;;;;;;8.00;3.13;;;27.00;72.40;;;;;;5013897;28;20050;-59
2023/06/16 10:44:43;;;;;;;12.75;3.08;;;27.10;72.20;;;;;;5015604;28;20054;-57
2023/06/16 10:47:12;;;;;;;6.75;2.58;;;27.20;71.90;;;;;;4997736;28;20037;-58
2023/06/16 10:50:01;;;;;;;8.50;3.10;;;27.30;71.30;;;;;;5006122;28;20056;-58
2023/06/16 10:52:28;;;;;;;6.65;2.78;;;27.50;68.50;;;;;;5003827;28;20050;-58
2023/06/16 10:54:56;;;;;;;7.90;2.80;;;27.50;70.50;;;;;;5006584;28;20084;-56
2023/06/16 10:57:25;;;;;;;4.28;2.38;;;27.10;68.90;;;;;;5020368;28;20090;-57
2023/06/16 10:59:53;;;;;;;4.57;2.80;;;26.80;70.00;;;;;;5009865;28;20037;-54
2023/06/16 11:02:28;;;;;;;12.50;2.95;;;26.60;70.00;;;;;;5006766;28;20042;-57
2023/06/16 11:05:07;;;;;;;5.00;2.28;;;26.50;70.50;;;;;;5003763;28;20049;-60
2023/06/16 11:07:40;;;;;;;12.63;2.90;;;26.50;68.20;;;;;;5006777;28;20042;-57
2023/06/16 11:10:08;;;;;;;7.32;2.50;;;26.30;68.50;;;;;;4998521;28;20053;-57
2023/06/16 11:12:36;;;;;;;16.23;3.65;;;26.30;68.80;;;;;;5006413;28;20445;-57
2023/06/16 11:15:04;;;;;;;4.38;2.60;;;26.10;69.10;;;;;;5005276;28;20041;-57
2023/06/16 11:17:31;;;;;;;12.32;3.72;;;26.00;69.60;;;;;;4997922;28;20046;-57
2023/06/16 11:20:01;;;;;;;12.80;3.25;;;25.90;69.40;;;;;;5004189;28;20060;-57
2023/06/16 11:22:30;;;;;;;5.57;2.50;;;25.80;69.50;;;;;;5016744;28;20049;-58
2023/06/16 11:24:57;;;;;;;6.95;2.90;;;25.80;69.40;;;;;;5011541;28;20042;-56
2023/06/16 11:27:27;;;;;;;7.20;2.90;;;25.70;69.30;;;;;;5015747;28;20057;-55
2023/06/16 11:29:54;;;;;;;6.10;2.88;;;25.70;69.40;;;;;;4977750;28;20117;-57
2023/06/16 11:32:24;;;;;;;16.95;4.05;;;25.80;69.20;;;;;;5016349;28;20129;-57
2023/06/16 11:34:53;;;;;;;12.30;3.33;;;25.60;69.40;;;;;;4994504;28;20072;-56
2023/06/16 11:37:19;;;;;;;12.70;2.97;;;25.50;69.40;;;;;;4656538;28;9999995;-57
2023/06/16 11:39:46;;;;;;;17.05;4.30;;;25.50;70.20;;;;;;4998601;28;20057;-56
2023/06/16 11:42:16;;;;;;;4.78;3.22;;;25.50;69.90;;;;;;5012437;28;20042;-55
2023/06/16 11:44:43;;;;;;;7.85;2.88;;;25.60;69.30;;;;;;5008049;28;20417;-57
2023/06/16 11:47:10;;;;;;;9.52;3.25;;;25.60;69.90;;;;;;5003348;28;20045;-56
2023/06/16 11:49:37;;;;;;;6.35;2.40;;;25.70;70.30;;;;;;4987190;28;20273;-57
2023/06/16 11:52:05;;;;;;;15.02;3.15;;;25.70;69.80;;;;;;4998588;28;20050;-56
2023/06/16 11:54:35;;;;;;;9.65;3.40;;;25.80;69.30;;;;;;4987844;28;20144;-58
2023/06/16 11:57:03;;;;;;;12.90;2.70;;;25.80;70.00;;;;;;4985336;28;20137;-56
2023/06/16 11:59:32;;;;;;;10.75;3.33;;;25.90;70.00;;;;;;5004882;28;20057;-56
2023/06/16 12:02:00;;;;;;;8.15;3.13;;;25.90;69.70;;;;;;4995044;28;20042;-57
2023/06/16 12:04:27;;;;;;;6.13;3.38;;;26.00;70.10;;;;;;5007483;28;20367;-57
2023/06/16 12:06:54;;;;;;;8.65;2.85;;;26.10;68.70;;;;;;4990615;28;20077;-57
2023/06/16 12:09:22;;;;;;;4.07;2.63;;;26.00;68.50;;;;;;5000725;28;20049;-55
2023/06/16 12:11:48;;;;;;;6.85;2.72;;;25.90;68.70;;;;;;4996698;28;20733;-57
2023/06/16 12:14:20;;;;;;;11.27;2.85;;;25.90;68.10;;;;;;5006993;28;20505;-57
2023/06/16 12:16:50;;;;;;;5.25;2.50;;;26.00;67.70;;;;;;4995390;28;20057;-56
2023/06/16 12:19:19;;;;;;;7.72;3.20;;;26.00;67.90;;;;;;5007610;28;20042;-56
2023/06/16 12:21:53;;;;;;;10.50;2.92;;;26.10;67.80;;;;;;5006865;28;20041;-56
2023/06/16 12:24:21;;;;;;;13.77;2.90;;;26.10;67.80;;;;;;4971043;28;20057;-56
2023/06/16 12:26:51;;;;;;;6.50;2.40;;;26.20;67.90;;;;;;5001472;28;20507;-53
2023/06/16 12:29:18;;;;;;;9.13;2.67;;;26.20;68.20;;;;;;5007640;28;20064;-51
2023/06/16 12:31:54;;;;;;;7.57;3.03;;;26.30;68.70;;;;;;5006293;28;20056;-57
2023/06/16 12:34:26;;;;;;;7.10;2.40;;;26.50;66.00;;;;;;5008921;28;20050;-55
2023/06/16 12:36:53;;;;;;;6.32;2.63;;;26.50;66.90;;;;;;5017222;28;20053;-54
2023/06/16 12:39:20;;;;;;;9.68;3.58;;;26.60;67.10;;;;;;5020035;28;20480;-54
2023/06/16 12:42:00;;;;;;;4.72;2.83;;;26.50;66.40;;;;;;5000259;28;20049;-55
2023/06/16 12:44:46;;;;;;;7.57;2.85;;;26.60;65.40;;;;;;5019454;28;20041;-56